Aberdeen, Maryland
Current Conditions -  °F | °C
As of 2:36 AM on Saturday 01 Nov 2014 (Local Time) from KMTN Reporting Station
Overcast Overcast  
Wind Chill: 46°   Ceiling: 2100
Heat Index: 48°   Visibility: 10mi
Dew Point: 43°   Wind: 6mph
Humidity: 82%   Direction: 310°NW
Pressure: 29.8"   Gusts: NA
Location:  39.51°N, 76.16°W
Report Text: KMTN 010636Z AUTO 31005KT 10SM OVC021 09/06 A2980 RMK AO2
Loading
Personal Weather Stations






























Interactive Weather Map
Tropical Storm Tracking
New forecast layout! Learn more

10-Day Weather Forecast

Advertisements
Track Severe Weather on mobile